Potomac, Montana
Current Conditions -  °F | °C
As of 8:48 AM on Thursday 30 Oct 2014 (Local Time) from KMSO Reporting Station
Haze Haze  
Wind Chill: 37°   Ceiling: Unl
Heat Index: 37°   Visibility: 1.2mi
Dew Point: 37°   Wind: 0mph
Humidity: 100%   Direction: NA
Pressure: 30.26"   Gusts: NA
Location:  46.8727°N, 113.587°W
Report Text: KMSO 301448Z 00000KT 1 1/4SM BR SCT003 03/03 A3026 RMK AO2
Loading
Personal Weather Stations






























Interactive Weather Map
Tropical Storm Tracking
New forecast layout! Learn more

10-Day Weather Forecast

Advertisements
Track Severe Weather on mobile